createdAt,value
2018-06-28T00:01:28.987Z,23.08
2018-06-28T00:04:04.480Z,23.05
2018-06-28T00:06:36.272Z,22.98
2018-06-28T00:09:11.715Z,23.00
2018-06-28T00:11:42.686Z,22.91
2018-06-28T00:14:13.812Z,22.89
2018-06-28T00:16:45.610Z,22.80
2018-06-28T00:19:16.081Z,22.73
2018-06-28T00:21:46.373Z,22.72
2018-06-28T00:24:17.257Z,22.71
2018-06-28T00:26:48.240Z,22.57
2018-06-28T00:31:56.129Z,22.72
2018-06-28T00:34:27.688Z,22.68
2018-06-28T00:36:58.666Z,22.59
2018-06-28T00:39:30.577Z,21.76
2018-06-28T00:42:01.474Z,22.42
2018-06-28T00:44:31.891Z,22.48
2018-06-28T00:47:02.687Z,22.51
2018-06-28T00:49:40.639Z,22.39
2018-06-28T00:52:11.058Z,22.23
2018-06-28T00:54:41.867Z,22.09
2018-06-28T00:57:19.234Z,22.15
2018-06-28T00:59:49.564Z,22.19
2018-06-28T01:02:20.786Z,22.16
2018-06-28T01:04:53.306Z,22.18
2018-06-28T01:07:27.044Z,22.05
2018-06-28T01:09:58.317Z,21.72
2018-06-28T01:12:28.935Z,22.05
2018-06-28T01:14:59.506Z,22.09
2018-06-28T01:17:33.539Z,22.02
2018-06-28T01:20:23.322Z,21.89
2018-06-28T01:22:55.270Z,21.84
2018-06-28T01:25:25.755Z,21.94
2018-06-28T01:28:22.186Z,21.98
2018-06-28T01:30:54.434Z,21.93
2018-06-28T01:33:25.118Z,21.82
2018-06-28T01:35:56.334Z,21.79
2018-06-28T01:38:26.897Z,21.77
2018-06-28T01:40:57.562Z,21.79
2018-06-28T01:43:37.401Z,21.75
2018-06-28T01:46:14.038Z,21.78
2018-06-28T01:48:44.903Z,21.75
2018-06-28T01:51:18.125Z,21.77
2018-06-28T01:53:48.536Z,21.72
2018-06-28T01:56:19.054Z,21.65
2018-06-28T01:58:49.711Z,21.64
2018-06-28T02:01:22.358Z,21.67
2018-06-28T02:03:53.678Z,21.78
2018-06-28T02:06:26.861Z,21.77
2018-06-28T02:08:59.377Z,21.62
2018-06-28T02:11:30.641Z,21.67
2018-06-28T02:14:06.042Z,21.61
2018-06-28T02:16:37.078Z,21.59
2018-06-28T02:19:08.408Z,21.61
2018-06-28T02:21:40.482Z,21.53
2018-06-28T02:24:22.635Z,21.51
2018-06-28T02:26:53.015Z,21.48
2018-06-28T02:29:23.774Z,21.52
2018-06-28T02:31:55.007Z,21.58
2018-06-28T02:34:26.664Z,21.58
2018-06-28T02:36:57.210Z,21.64
2018-06-28T02:39:28.202Z,21.66
2018-06-28T02:42:06.294Z,21.66
2018-06-28T02:44:37.536Z,21.64
2018-06-28T02:47:09.506Z,21.51
2018-06-28T02:49:40.059Z,21.50
2018-06-28T02:52:11.266Z,21.51
2018-06-28T02:54:42.652Z,21.48
2018-06-28T02:57:13.242Z,21.42
2018-06-28T02:59:44.893Z,21.40
2018-06-28T03:02:15.723Z,21.29
2018-06-28T03:04:46.896Z,21.14
2018-06-28T03:07:18.533Z,21.04
2018-06-28T03:09:51.853Z,21.10
2018-06-28T03:12:35.757Z,20.71
2018-06-28T03:15:20.549Z,21.08
2018-06-28T03:17:51.046Z,21.05
2018-06-28T03:20:21.726Z,21.06
2018-06-28T03:22:52.333Z,21.17
2018-06-28T03:25:22.760Z,21.10
2018-06-28T03:27:54.912Z,21.07
2018-06-28T03:30:27.236Z,21.11
2018-06-28T03:33:05.102Z,21.17
2018-06-28T03:35:35.357Z,21.19
2018-06-28T03:38:06.071Z,21.19
2018-06-28T03:40:38.605Z,21.22
2018-06-28T03:43:09.728Z,21.14
2018-06-28T03:45:41.917Z,20.99
2018-06-28T03:48:14.351Z,20.90
2018-06-28T03:50:53.278Z,20.91
2018-06-28T03:53:28.506Z,20.94
2018-06-28T03:55:59.846Z,20.86
2018-06-28T03:58:31.352Z,20.87
2018-06-28T04:01:02.145Z,20.97
2018-06-28T04:03:36.805Z,21.10
2018-06-28T04:06:07.867Z,21.29
2018-06-28T04:08:39.227Z,21.35
2018-06-28T04:11:14.601Z,21.41
2018-06-28T04:13:45.110Z,21.43
2018-06-28T04:16:16.926Z,21.17
2018-06-28T04:18:47.325Z,21.56
2018-06-28T04:21:18.682Z,21.83
2018-06-28T04:23:50.948Z,22.00
2018-06-28T04:26:21.277Z,22.23
2018-06-28T04:28:52.330Z,22.31
2018-06-28T04:31:23.826Z,22.35
2018-06-28T04:33:55.466Z,22.53
2018-06-28T04:36:25.857Z,22.67
2018-06-28T04:38:56.447Z,22.99
2018-06-28T04:41:26.995Z,23.23
2018-06-28T04:43:57.458Z,23.43
2018-06-28T04:46:28.450Z,23.57
2018-06-28T04:49:00.974Z,23.79
2018-06-28T04:51:31.828Z,23.88
2018-06-28T04:54:02.601Z,24.17
2018-06-28T04:56:33.602Z,24.30
2018-06-28T04:59:04.276Z,24.57
2018-06-28T05:01:41.256Z,24.62
2018-06-28T05:04:21.146Z,24.57
2018-06-28T05:06:56.456Z,24.77
2018-06-28T05:09:27.776Z,24.74
2018-06-28T05:11:59.485Z,24.91
2018-06-28T05:14:37.226Z,25.41
2018-06-28T05:17:09.492Z,25.77
2018-06-28T05:19:42.806Z,25.80
2018-06-28T05:22:17.734Z,25.80
2018-06-28T05:24:58.734Z,26.15
2018-06-28T05:27:29.993Z,26.61
2018-06-28T05:30:00.633Z,26.62
2018-06-28T05:32:35.423Z,26.21
2018-06-28T05:35:08.216Z,26.26
2018-06-28T05:37:38.791Z,26.78
2018-06-28T05:40:09.728Z,26.79
2018-06-28T05:42:42.679Z,26.86
2018-06-28T05:45:16.413Z,27.29
2018-06-28T05:47:55.565Z,27.42
2018-06-28T05:50:26.848Z,27.21
2018-06-28T05:52:57.281Z,26.99
2018-06-28T05:55:33.093Z,27.01
2018-06-28T05:58:03.849Z,27.12
2018-06-28T06:00:38.802Z,27.00
2018-06-28T06:03:10.324Z,26.92
2018-06-28T06:05:40.784Z,27.18
2018-06-28T06:08:14.467Z,27.39
2018-06-28T06:10:47.569Z,27.45
2018-06-28T06:16:45.595Z,27.78
2018-06-28T06:19:18.280Z,27.63
2018-06-28T06:21:49.723Z,27.74
2018-06-28T06:24:41.604Z,28.06
2018-06-28T06:27:12.452Z,28.34
2018-06-28T06:29:43.533Z,28.42
2018-06-28T06:32:14.839Z,28.79
2018-06-28T06:34:51.077Z,28.88
2018-06-28T06:37:25.860Z,28.84
2018-06-28T06:39:56.306Z,29.01
2018-06-28T06:42:27.270Z,29.11
2018-06-28T06:45:05.254Z,29.51
2018-06-28T06:47:37.696Z,29.60
2018-06-28T06:50:10.948Z,29.86
2018-06-28T06:53:07.583Z,30.37
2018-06-28T06:55:46.248Z,30.26
2018-06-28T06:58:22.964Z,30.42
2018-06-28T07:01:19.031Z,30.34
2018-06-28T07:03:52.498Z,30.59
2018-06-28T07:06:23.666Z,31.28
2018-06-28T07:08:58.738Z,31.66
2018-06-28T07:11:30.352Z,32.50
2018-06-28T07:14:02.132Z,32.83
2018-06-28T07:16:43.042Z,32.23
2018-06-28T07:19:13.751Z,31.70
2018-06-28T07:21:45.431Z,31.55
2018-06-28T07:24:16.559Z,31.68
2018-06-28T07:27:03.359Z,31.38
2018-06-28T07:29:47.611Z,31.43
2018-06-28T07:32:20.316Z,31.38
2018-06-28T07:34:56.155Z,31.77
2018-06-28T07:37:42.677Z,31.82
2018-06-28T07:40:13.157Z,31.45
2018-06-28T07:42:45.067Z,31.70
2018-06-28T07:45:20.163Z,32.03
2018-06-28T07:47:53.323Z,31.68
2018-06-28T07:50:24.268Z,31.36
2018-06-28T07:53:06.989Z,30.97
2018-06-28T07:55:38.723Z,31.04
2018-06-28T07:58:12.521Z,31.09
2018-06-28T08:00:44.288Z,30.78
2018-06-28T08:03:16.401Z,30.75
2018-06-28T08:05:47.900Z,30.90
2018-06-28T08:08:20.625Z,31.18
2018-06-28T08:11:07.126Z,31.33
2018-06-28T08:16:23.718Z,31.80
2018-06-28T08:19:00.914Z,31.23
2018-06-28T09:03:47.236Z,30.61
2018-06-28T09:06:20.639Z,30.42
2018-06-28T09:08:54.578Z,30.19
2018-06-28T09:11:29.651Z,30.42
2018-06-28T09:14:04.228Z,30.52
2018-06-28T09:16:37.395Z,30.70
2018-06-28T09:19:09.798Z,30.66
2018-06-28T09:21:54.533Z,30.60
2018-06-28T09:24:31.748Z,30.92
2018-06-28T09:27:17.424Z,30.94
2018-06-28T09:29:58.590Z,30.82
2018-06-28T09:32:32.976Z,30.74
2018-06-28T09:35:07.282Z,31.38
2018-06-28T09:37:41.599Z,31.43
2018-06-28T09:40:14.589Z,31.53
2018-06-28T09:42:55.026Z,31.31
2018-06-28T09:45:32.520Z,31.54
2018-06-28T09:48:08.547Z,31.62
2018-06-28T09:50:54.643Z,31.77
2018-06-28T09:53:32.631Z,31.96
2018-06-28T09:56:04.415Z,31.71
2018-06-28T10:04:08.119Z,31.88
2018-06-28T10:06:40.361Z,32.27
2018-06-28T10:09:14.528Z,32.57
2018-06-28T10:11:51.996Z,32.76
2018-06-28T10:14:24.213Z,32.55
2018-06-28T10:17:01.788Z,32.14
2018-06-28T10:22:33.626Z,32.31
2018-06-28T10:25:06.442Z,32.67
2018-06-28T10:27:44.404Z,32.46
2018-06-28T10:30:18.394Z,31.95
2018-06-28T10:32:49.441Z,32.67
2018-06-28T10:35:22.268Z,32.73
2018-06-28T10:38:03.220Z,32.87
2018-06-28T10:40:40.260Z,32.72
2018-06-28T10:43:18.503Z,32.97
2018-06-28T10:45:51.962Z,33.09
2018-06-28T10:48:25.930Z,32.79
2018-06-28T10:51:03.203Z,33.02
2018-06-28T10:53:37.711Z,32.98
2018-06-28T10:56:13.028Z,33.02
2018-06-28T10:58:47.268Z,32.82
2018-06-28T11:01:28.475Z,32.19
2018-06-28T11:04:05.581Z,32.40
2018-06-28T11:06:41.460Z,32.64
2018-06-28T11:09:15.294Z,33.13
2018-06-28T11:11:51.479Z,33.14
2018-06-28T11:14:29.015Z,33.11
2018-06-28T11:17:02.778Z,33.33
2018-06-28T11:19:35.998Z,33.46
2018-06-28T11:22:08.602Z,33.14
2018-06-28T11:24:40.394Z,33.22
2018-06-28T11:27:20.116Z,33.12
2018-06-28T11:29:52.137Z,32.88
2018-06-28T11:32:27.063Z,33.22
2018-06-28T11:35:04.244Z,33.17
2018-06-28T11:37:38.387Z,33.50
2018-06-28T11:40:20.792Z,33.24
2018-06-28T11:42:52.610Z,33.61
2018-06-28T11:45:30.539Z,33.80
2018-06-28T11:48:05.249Z,33.82
2018-06-28T11:50:36.438Z,33.30
2018-06-28T11:53:21.370Z,31.97
2018-06-28T11:56:05.527Z,33.69
2018-06-28T11:58:45.622Z,33.97
2018-06-28T12:01:17.167Z,33.89
2018-06-28T12:03:52.556Z,34.16
2018-06-28T12:06:27.552Z,34.04
2018-06-28T12:09:17.792Z,34.62
2018-06-28T12:11:49.919Z,33.80
2018-06-28T12:14:21.265Z,33.38
2018-06-28T12:16:56.258Z,33.60
2018-06-28T12:19:27.244Z,33.87
2018-06-28T12:22:03.278Z,33.43
2018-06-28T12:24:45.210Z,33.29
2018-06-28T12:27:20.517Z,33.47
2018-06-28T12:32:53.219Z,33.83
2018-06-28T12:35:26.030Z,33.68
2018-06-28T12:37:59.189Z,33.79
2018-06-28T12:40:32.009Z,33.76
2018-06-28T12:43:04.458Z,33.73
2018-06-28T12:45:39.687Z,34.17
2018-06-28T12:48:15.658Z,34.78
2018-06-28T12:50:47.445Z,34.81
2018-06-28T12:53:43.026Z,34.53
2018-06-28T12:56:34.866Z,34.22
2018-06-28T12:59:13.969Z,33.95
2018-06-28T13:01:50.309Z,34.23
2018-06-28T13:04:34.147Z,34.41
2018-06-28T13:07:06.236Z,34.68
2018-06-28T13:13:13.852Z,34.21
2018-06-28T13:15:47.620Z,34.55
2018-06-28T13:18:35.148Z,34.43
2018-06-28T13:24:08.367Z,33.93
2018-06-28T13:26:57.583Z,33.69
2018-06-28T13:29:32.432Z,33.78
2018-06-28T13:35:08.644Z,34.12
2018-06-28T13:37:43.779Z,34.55
2018-06-28T13:40:21.031Z,34.36
2018-06-28T13:42:57.674Z,33.67
2018-06-28T13:45:39.921Z,33.49
2018-06-28T13:56:55.127Z,33.42
2018-06-28T14:02:58.471Z,32.82
2018-06-28T14:05:46.963Z,32.65
2018-06-28T14:08:25.667Z,32.38
2018-06-28T14:11:24.541Z,32.14
2018-06-28T14:14:05.703Z,32.32
2018-06-28T14:19:44.570Z,32.90
2018-06-28T14:22:21.282Z,33.27
2018-06-28T14:24:57.178Z,32.66
2018-06-28T14:27:34.942Z,32.69
2018-06-28T14:30:20.403Z,32.67
2018-06-28T14:32:56.556Z,32.54
2018-06-28T14:35:32.796Z,32.79
2018-06-28T14:38:18.461Z,33.22
2018-06-28T14:44:22.734Z,33.37
2018-06-28T14:47:04.263Z,33.47
2018-06-28T14:49:38.582Z,33.31
2018-06-28T14:52:12.099Z,32.97
2018-06-28T14:54:42.987Z,32.23
2018-06-28T14:57:22.736Z,31.70
2018-06-28T14:59:56.512Z,31.86
2018-06-28T15:02:29.487Z,32.09
2018-06-28T15:05:04.307Z,31.94
2018-06-28T15:07:41.678Z,31.93
2018-06-28T15:10:12.480Z,32.03
2018-06-28T15:12:54.680Z,32.37
2018-06-28T15:15:27.408Z,31.95
2018-06-28T15:20:43.723Z,31.94
2018-06-28T15:23:27.374Z,31.89
2018-06-28T15:25:59.411Z,32.00
2018-06-28T15:28:30.756Z,31.68
2018-06-28T15:31:07.398Z,31.45
2018-06-28T15:33:43.015Z,31.62
2018-06-28T15:36:16.209Z,31.46
2018-06-28T15:38:49.929Z,31.26
2018-06-28T15:41:28.186Z,31.29
2018-06-28T15:46:38.581Z,31.11
2018-06-28T15:49:12.282Z,31.30
2018-06-28T15:51:48.413Z,31.54
2018-06-28T15:54:35.430Z,31.35
2018-06-28T15:57:16.240Z,31.05
2018-06-28T15:59:49.230Z,30.85
2018-06-28T16:02:30.410Z,30.89
2018-06-28T16:05:16.488Z,31.07
2018-06-28T16:07:50.929Z,31.18
2018-06-28T16:10:23.461Z,31.16
2018-06-28T16:12:54.843Z,31.12
2018-06-28T16:15:35.513Z,31.12
2018-06-28T16:18:20.592Z,31.08
2018-06-28T16:31:19.860Z,30.52
2018-06-28T16:33:52.247Z,30.49
2018-06-28T16:36:24.343Z,30.36
2018-06-28T16:38:55.453Z,30.27
2018-06-28T16:41:26.835Z,30.24
2018-06-28T16:43:58.257Z,30.28
2018-06-28T16:46:31.206Z,30.21
2018-06-28T16:49:09.565Z,30.13
2018-06-28T16:51:45.332Z,30.02
2018-06-28T16:54:16.829Z,30.14
2018-06-28T16:59:54.419Z,30.31
2018-06-28T17:02:29.576Z,30.23
2018-06-28T17:05:00.362Z,30.14
2018-06-28T17:07:34.173Z,30.06
2018-06-28T17:10:08.466Z,30.14
2018-06-28T17:12:41.983Z,30.15
2018-06-28T17:15:24.492Z,30.03
2018-06-28T17:17:57.493Z,29.97
2018-06-28T17:20:32.103Z,29.94
2018-06-28T17:23:04.693Z,29.91
2018-06-28T17:25:35.429Z,29.92
2018-06-28T17:28:09.925Z,29.96
2018-06-28T17:33:52.805Z,29.92
2018-06-28T17:36:27.532Z,29.95
2018-06-28T17:39:00.081Z,29.84
2018-06-28T17:41:33.390Z,29.70
2018-06-28T17:44:06.680Z,29.62
2018-06-28T17:46:43.476Z,29.64
2018-06-28T17:49:22.987Z,29.67
2018-06-28T17:54:49.666Z,29.61
2018-06-28T17:57:59.694Z,29.60
2018-06-28T18:00:37.667Z,29.59
2018-06-28T18:03:15.951Z,29.50
2018-06-28T18:05:50.708Z,29.41
2018-06-28T18:08:31.395Z,29.41
2018-06-28T18:11:08.329Z,29.50
2018-06-28T18:13:43.735Z,29.48
2018-06-28T18:16:19.049Z,29.53
2018-06-28T18:18:51.202Z,29.51
2018-06-28T18:21:24.775Z,29.52
2018-06-28T18:23:58.860Z,29.51
2018-06-28T18:26:32.427Z,29.42
2018-06-28T18:29:18.251Z,29.35
2018-06-28T18:31:57.711Z,29.27
2018-06-28T18:34:32.516Z,29.29
2018-06-28T18:37:06.520Z,29.24
2018-06-28T18:39:39.379Z,29.18
2018-06-28T18:42:20.953Z,29.11
2018-06-28T18:44:57.411Z,29.03
2018-06-28T18:47:28.572Z,29.05
2018-06-28T18:50:00.881Z,28.98
2018-06-28T18:52:32.313Z,28.92
2018-06-28T18:55:05.011Z,28.90
2018-06-28T18:57:37.771Z,28.78
2018-06-28T19:00:20.934Z,28.77
2018-06-28T19:06:03.604Z,28.65
2018-06-28T19:09:10.303Z,28.59
2018-06-28T19:11:50.083Z,28.53
2018-06-28T19:17:24.823Z,28.56
2018-06-28T19:19:58.109Z,28.49
2018-06-28T19:22:34.425Z,28.40
2018-06-28T19:25:08.751Z,28.32
2018-06-28T19:27:58.230Z,28.26
2018-06-28T19:34:01.134Z,28.16
2018-06-28T19:36:37.376Z,28.15
2018-06-28T19:39:15.660Z,28.09
2018-06-28T19:42:01.668Z,28.05
2018-06-28T19:44:37.644Z,28.01
2018-06-28T19:47:12.595Z,28.00
2018-06-28T19:49:51.095Z,27.93
2018-06-28T19:52:27.152Z,27.88
2018-06-28T19:55:00.879Z,27.86
2018-06-28T19:57:32.585Z,27.88
2018-06-28T20:00:24.361Z,27.74
2018-06-28T20:03:04.262Z,27.68
2018-06-28T20:05:36.382Z,27.58
2018-06-28T20:08:10.538Z,27.57
2018-06-28T20:10:43.564Z,27.57
2018-06-28T20:13:23.960Z,27.56
2018-06-28T20:15:59.904Z,27.46
2018-06-28T20:18:36.155Z,27.47
2018-06-28T20:21:10.452Z,27.39
2018-06-28T20:23:44.628Z,27.33
2018-06-28T20:26:26.447Z,27.31
2018-06-28T20:29:06.475Z,27.25
2018-06-28T20:31:51.479Z,27.20
2018-06-28T20:34:27.847Z,27.13
2018-06-28T20:36:59.823Z,27.11
2018-06-28T20:39:45.841Z,27.09
2018-06-28T20:42:19.645Z,27.07
2018-06-28T20:45:05.085Z,27.05
2018-06-28T20:47:58.212Z,27.00
2018-06-28T20:50:33.407Z,26.94
2018-06-28T20:56:02.152Z,26.82
2018-06-28T20:58:53.522Z,26.75
2018-06-28T21:01:29.003Z,26.76
2018-06-28T21:04:00.537Z,26.71
2018-06-28T21:06:37.545Z,26.67
2018-06-28T21:09:13.802Z,26.65
2018-06-28T21:11:49.251Z,26.54
2018-06-28T21:14:22.576Z,26.55
2018-06-28T21:17:28.609Z,26.47
2018-06-28T21:20:05.551Z,26.37
2018-06-28T21:22:37.786Z,26.31
2018-06-28T21:25:08.604Z,26.39
2018-06-28T21:27:42.827Z,26.47
2018-06-28T21:30:21.528Z,26.55
2018-06-28T21:32:59.425Z,26.44
2018-06-28T21:35:31.430Z,26.50
2018-06-28T21:38:07.633Z,26.51
2018-06-28T21:40:38.839Z,26.21
2018-06-28T21:43:13.178Z,26.03
2018-06-28T21:45:47.419Z,25.90
2018-06-28T21:48:20.058Z,25.83
2018-06-28T21:50:51.784Z,25.77
2018-06-28T21:53:25.375Z,25.76
2018-06-28T21:55:58.866Z,25.70
2018-06-28T21:58:34.296Z,25.59
2018-06-28T22:01:07.365Z,25.55
2018-06-28T22:03:38.401Z,25.15
2018-06-28T22:06:08.873Z,25.51
2018-06-28T22:08:43.404Z,25.38
2018-06-28T22:11:17.236Z,25.13
2018-06-28T22:13:49.727Z,25.32
2018-06-28T22:16:30.113Z,25.28
2018-06-28T22:19:04.386Z,25.22
2018-06-28T22:21:38.692Z,25.18
2018-06-28T22:24:09.414Z,25.18
2018-06-28T22:26:42.026Z,25.22
2018-06-28T22:29:12.799Z,25.23
2018-06-28T22:31:43.611Z,25.15
2018-06-28T22:34:15.552Z,25.06
2018-06-28T22:36:45.739Z,25.02
2018-06-28T22:39:17.275Z,24.98
2018-06-28T22:41:49.593Z,24.66
2018-06-28T22:44:23.624Z,24.89
2018-06-28T22:46:58.383Z,24.85
2018-06-28T22:49:34.037Z,24.83
2018-06-28T22:52:04.961Z,24.76
2018-06-28T22:54:39.822Z,24.67
2018-06-28T22:57:11.178Z,24.64
2018-06-28T22:59:41.451Z,24.64
2018-06-28T23:02:12.399Z,24.66
2018-06-28T23:04:44.070Z,24.69
2018-06-28T23:07:15.563Z,24.65
2018-06-28T23:09:45.741Z,24.66
2018-06-28T23:12:18.629Z,24.76
2018-06-28T23:14:49.093Z,24.59
2018-06-28T23:17:19.691Z,24.51
2018-06-28T23:19:50.482Z,24.54
2018-06-28T23:22:45.292Z,24.48
2018-06-28T23:25:16.095Z,24.48
2018-06-28T23:27:47.537Z,24.35
2018-06-28T23:30:20.975Z,24.32
2018-06-28T23:32:51.388Z,24.25
2018-06-28T23:35:23.645Z,24.23
2018-06-28T23:37:54.803Z,24.09
2018-06-28T23:40:26.123Z,24.12
2018-06-28T23:42:58.082Z,24.17
2018-06-28T23:45:30.279Z,24.04
2018-06-28T23:48:03.529Z,23.91
2018-06-28T23:50:34.499Z,23.83
2018-06-28T23:53:11.596Z,23.82
2018-06-28T23:55:42.205Z,23.83
2018-06-28T23:58:12.992Z,23.69
